Time;durP1;ratioP1;P1;durP2;ratioP2;P2;SDS_P1;SDS_P2;PMS_P1;PMS_P2;Temp;Humidity;BMP_temperature;BMP_pressure;BME280_temperature;BME280_humidity;BME280_pressure;Samples;Min_cycle;Max_cycle;Signal;HPM_P1;HPM_P2
2021/03/18 00:01:07;;;;;;;77.35;31.05;;;;;;;-1.06;70.12;100850.63;2115705;84;32085;-65
2021/03/18 00:04:19;;;;;;;85.87;34.10;;;;;;;-1.05;70.17;100846.27;2083212;84;33104;-65
2021/03/18 00:07:26;;;;;;;78.28;34.45;;;;;;;-1.02;70.27;100851.11;2068631;85;30057;-66
2021/03/18 00:10:34;;;;;;;67.87;31.20;;;;;;;-1.02;70.42;100852.42;2052857;86;28013;-65
2021/03/18 00:13:46;;;;;;;66.70;30.97;;;;;;;-0.99;70.47;100852.89;2052882;86;28822;-64
2021/03/18 00:16:57;;;;;;;59.67;30.10;;;;;;;-0.96;70.62;100860.36;2052708;86;32139;-65
2021/03/18 00:20:14;;;;;;;69.58;30.48;;;;;;;-0.92;70.77;100862.57;2052383;86;30039;-64
2021/03/18 00:23:21;;;;;;;63.58;29.50;;;;;;;-0.87;70.73;100863.91;2073796;85;30032;-64
2021/03/18 00:26:30;;;;;;;62.90;30.20;;;;;;;-0.83;70.70;100857.39;2049378;86;27959;-64
2021/03/18 00:29:46;;;;;;;67.32;30.65;;;;;;;-0.85;70.54;100847.29;2073763;85;29020;-65
2021/03/18 00:32:58;;;;;;;63.08;29.40;;;;;;;-0.82;70.51;100860.88;2049150;86;32092;-63
2021/03/18 00:36:04;;;;;;;56.98;27.42;;;;;;;-0.88;70.45;100845.95;2073720;85;33986;-64
2021/03/18 00:39:16;;;;;;;55.52;26.68;;;;;;;-0.77;70.56;100863.98;2048678;86;29171;-61
2021/03/18 00:42:28;;;;;;;55.50;23.57;;;;;;;-0.74;70.49;100856.98;2049110;85;33143;-61
2021/03/18 00:45:42;;;;;;;64.62;28.15;;;;;;;-0.72;70.43;100859.19;2073621;85;27951;-65
2021/03/18 00:48:59;;;;;;;68.35;31.82;;;;;;;-0.74;70.27;100862.24;2049192;86;31144;-64
2021/03/18 00:52:11;;;;;;;55.30;27.75;;;;;;;-0.74;70.29;100853.90;2049281;85;32719;-64
2021/03/18 00:55:21;;;;;;;69.50;31.35;;;;;;;-0.75;70.25;100855.22;2049610;86;30134;-63
2021/03/18 00:58:27;;;;;;;58.05;27.98;;;;;;;-0.77;70.17;100856.09;2049866;85;27869;-64
2021/03/18 01:01:35;;;;;;;68.85;29.32;;;;;;;-0.81;70.27;100852.98;2049787;86;29716;-65
2021/03/18 01:04:52;;;;;;;56.25;28.87;;;;;;;-0.83;70.15;100853.44;2104722;83;32165;-64
2021/03/18 01:08:02;;;;;;;58.92;26.68;;;;;;;-0.85;70.15;100844.66;2115045;84;34041;-64
2021/03/18 01:11:17;;;;;;;50.33;24.47;;;;;;;-0.88;70.08;100845.05;2114679;84;27998;-64
2021/03/18 01:14:23;;;;;;;55.05;23.90;;;;;;;-0.89;70.22;100841.55;2115131;84;27991;-65
2021/03/18 01:17:34;;;;;;;50.00;23.12;;;;;;;-0.90;70.29;100840.21;2115410;84;29717;-63
2021/03/18 01:20:43;;;;;;;50.67;24.25;;;;;;;-0.92;70.23;100843.74;2115367;84;32055;-64
2021/03/18 01:23:58;;;;;;;49.38;23.18;;;;;;;-0.95;70.29;100833.20;2114957;84;28038;-62
2021/03/18 01:27:13;;;;;;;47.95;22.73;;;;;;;-0.96;70.32;100835.38;2115281;84;30062;-64
2021/03/18 01:30:25;;;;;;;49.85;23.47;;;;;;;-0.98;70.25;100838.84;2115008;84;27961;-60
2021/03/18 01:33:32;;;;;;;56.35;22.80;;;;;;;-1.01;70.27;100834.46;2114997;84;29657;-61
2021/03/18 01:36:38;;;;;;;41.20;21.73;;;;;;;-1.03;70.31;100832.70;2114862;84;32047;-61
2021/03/18 01:39:43;;;;;;;48.70;21.17;;;;;;;-1.05;70.45;100833.13;2115305;84;33968;-61
2021/03/18 01:42:53;;;;;;;50.92;22.48;;;;;;;-1.07;70.53;100833.09;2115288;84;30065;-61
2021/03/18 01:45:59;;;;;;;42.90;22.55;;;;;;;-1.08;70.53;100833.54;2115469;84;27974;-60
2021/03/18 01:49:06;;;;;;;49.75;23.27;;;;;;;-1.08;70.40;100832.67;2115496;84;29693;-61
2021/03/18 01:52:17;;;;;;;44.77;22.00;;;;;;;-1.11;70.36;100833.52;2115650;84;32061;-65
2021/03/18 01:55:39;;;;;;;49.77;23.55;;;;;;;-1.13;70.36;100830.44;2115538;84;33982;-61
2021/03/18 01:58:49;;;;;;;43.78;21.52;;;;;;;-1.13;70.51;100831.30;2115636;84;29180;-65
2021/03/18 02:01:55;;;;;;;44.83;21.10;;;;;;;-1.14;70.48;100830.86;2115429;84;27946;-60
2021/03/18 02:05:01;;;;;;;43.13;20.20;;;;;;;-1.16;70.42;100830.41;2086339;84;29689;-64
2021/03/18 02:08:11;;;;;;;42.93;19.57;;;;;;;-1.16;70.40;100823.42;2049660;86;32086;-60
2021/03/18 02:11:16;;;;;;;38.88;19.02;;;;;;;-1.19;70.44;100825.12;2074193;85;33982;-61
2021/03/18 02:14:28;;;;;;;35.28;18.52;;;;;;;-1.23;70.35;100822.92;2049680;86;30061;-61
2021/03/18 02:17:47;;;;;;;38.63;17.82;;;;;;;-1.28;70.39;100819.37;2074354;85;27994;-62
2021/03/18 02:21:22;;;;;;;46.80;19.00;;;;;;;-1.28;70.29;100824.20;2049822;86;29676;-60
2021/03/18 02:24:52;;;;;;;36.83;17.55;;;;;;;-1.29;70.32;100826.39;2074256;85;32069;-60
2021/03/18 02:28:37;;;;;;;38.13;16.77;;;;;;;-1.32;70.19;100832.92;2049619;86;33970;-60
2021/03/18 02:31:56;;;;;;;38.80;16.50;;;;;;;-1.33;70.11;100827.67;2074247;85;30062;-60
2021/03/18 02:35:36;;;;;;;38.60;16.57;;;;;;;-1.38;70.01;100830.23;2049020;86;28008;-60
2021/03/18 02:38:58;;;;;;;40.17;18.98;;;;;;;-1.43;70.04;100837.23;2074087;85;28896;-62
2021/03/18 02:42:17;;;;;;;38.88;17.65;;;;;;;-1.47;70.25;100844.19;2073961;85;32548;-59
2021/03/18 02:45:29;;;;;;;39.98;18.17;;;;;;;-1.52;70.32;100848.54;2049403;86;33963;-60
2021/03/18 02:48:43;;;;;;;42.43;19.25;;;;;;;-1.56;70.56;100851.55;2073787;85;29139;-60
2021/03/18 02:52:00;;;;;;;44.38;18.77;;;;;;;-1.55;70.69;100849.82;2049791;86;27918;-59
2021/03/18 02:55:09;;;;;;;40.67;17.17;;;;;;;-1.56;70.72;100851.55;2074260;85;29704;-60
2021/03/18 02:58:17;;;;;;;38.05;17.55;;;;;;;-1.54;71.00;100851.58;2049566;86;32084;-62
2021/03/18 03:01:23;;;;;;;35.78;16.90;;;;;;;-1.53;70.87;100847.64;2074191;85;33994;-60
2021/03/18 03:04:33;;;;;;;44.60;19.57;;;;;;;-1.51;70.79;100845.05;2074929;83;30224;-60
2021/03/18 03:07:47;;;;;;;35.25;17.90;;;;;;;-1.48;70.78;100850.75;2112955;84;27858;-65
2021/03/18 03:11:02;;;;;;;37.30;17.23;;;;;;;-1.48;70.61;100851.62;2113016;84;29711;-65
2021/03/18 03:14:11;;;;;;;39.80;17.50;;;;;;;-1.46;70.68;100851.65;2113013;84;32055;-59
2021/03/18 03:17:24;;;;;;;39.98;16.73;;;;;;;-1.46;70.59;100852.52;2084903;84;32940;-61
2021/03/18 03:20:29;;;;;;;38.70;17.17;;;;;;;-1.46;70.66;100857.77;2111550;84;29883;-62
2021/03/18 03:23:41;;;;;;;36.03;16.48;;;;;;;-1.45;70.80;100858.22;2112454;84;28030;-60
2021/03/18 03:27:00;;;;;;;40.10;16.27;;;;;;;-1.44;70.78;100862.61;2112239;84;30110;-61
2021/03/18 03:30:14;;;;;;;41.35;18.23;;;;;;;-1.42;70.90;100862.64;2112459;84;31610;-61
2021/03/18 03:33:23;;;;;;;36.38;16.50;;;;;;;-1.39;71.04;100866.58;2112198;84;33975;-61
2021/03/18 03:36:35;;;;;;;33.08;16.93;;;;;;;-1.35;71.07;100860.94;2112342;84;30074;-60
2021/03/18 03:39:50;;;;;;;31.37;16.05;;;;;;;-1.31;70.90;100866.23;2112337;84;27938;-61
2021/03/18 03:42:57;;;;;;;32.25;15.45;;;;;;;-1.30;70.88;100861.42;2112240;84;29700;-59
2021/03/18 03:46:03;;;;;;;32.65;15.78;;;;;;;-1.28;70.78;100863.64;2112462;84;32056;-60
2021/03/18 03:49:14;;;;;;;40.17;16.70;;;;;;;-1.28;70.84;100858.38;2112088;84;33077;-60
2021/03/18 03:52:29;;;;;;;31.50;15.95;;;;;;;-1.26;70.66;100851.80;2112966;84;28535;-65
2021/03/18 03:55:53;;;;;;;36.28;16.35;;;;;;;-1.25;70.54;100853.56;2112284;84;27967;-61
2021/03/18 03:59:08;;;;;;;36.77;19.05;;;;;;;-1.31;70.38;100851.77;2112649;84;29724;-62
2021/03/18 04:02:17;;;;;;;40.08;18.52;;;;;;;-1.33;70.37;100856.13;2089306;84;32024;-60
2021/03/18 04:05:31;;;;;;;35.50;15.80;;;;;;;-1.33;70.24;100861.39;2112424;84;33102;-61
2021/03/18 04:08:41;;;;;;;38.78;17.80;;;;;;;-1.36;70.14;100860.05;2113071;84;30033;-61
2021/03/18 04:11:51;;;;;;;38.80;17.20;;;;;;;-1.39;70.13;100861.33;2113003;84;28116;-61
2021/03/18 04:15:05;;;;;;;41.55;18.95;;;;;;;-1.43;70.08;100849.92;2112785;84;28800;-61
2021/03/18 04:18:18;;;;;;;34.78;17.07;;;;;;;-1.45;69.92;100853.41;2112999;84;32058;-61
2021/03/18 04:21:30;;;;;;;37.25;18.32;;;;;;;-1.47;70.04;100859.08;2112923;84;33992;-60
2021/03/18 04:24:37;;;;;;;42.43;19.10;;;;;;;-1.48;69.92;100853.38;2112997;84;30053;-66
2021/03/18 04:27:48;;;;;;;37.83;19.05;;;;;;;-1.54;69.79;100852.89;2090874;84;27972;-60
2021/03/18 04:30:59;;;;;;;44.80;20.68;;;;;;;-1.57;69.87;100852.86;2112797;84;29723;-60
2021/03/18 04:34:10;;;;;;;43.98;19.00;;;;;;;-1.61;69.80;100850.65;2090564;84;32073;-62
2021/03/18 04:37:23;;;;;;;44.05;19.48;;;;;;;-1.64;69.72;100846.67;2112096;84;28161;-60
2021/03/18 04:40:37;;;;;;;38.70;19.50;;;;;;;-1.64;69.75;100849.72;2112958;84;30044;-63
2021/03/18 04:43:42;;;;;;;49.20;21.02;;;;;;;-1.69;69.72;100847.95;2112964;84;27912;-61
2021/03/18 04:46:54;;;;;;;41.28;19.77;;;;;;;-1.70;69.77;100852.75;2112484;84;29795;-60
2021/03/18 04:50:07;;;;;;;41.05;20.12;;;;;;;-1.72;69.64;100847.92;2112749;84;31671;-61
2021/03/18 04:53:17;;;;;;;39.40;19.00;;;;;;;-1.74;69.53;100843.52;2111924;84;33982;-63
2021/03/18 04:56:28;;;;;;;41.65;18.57;;;;;;;-1.75;69.58;100845.70;2112849;84;27963;-61
2021/03/18 04:59:38;;;;;;;49.27;20.10;;;;;;;-1.79;69.59;100844.77;2112936;84;27903;-63
2021/03/18 05:02:51;;;;;;;42.80;17.95;;;;;;;-1.79;69.57;100846.53;2112656;84;27923;-61
2021/03/18 05:05:58;;;;;;;47.27;19.45;;;;;;;-1.81;69.59;100843.00;2112674;84;31984;-60
2021/03/18 05:09:09;;;;;;;38.92;19.00;;;;;;;-1.80;69.65;100847.39;2112415;84;33930;-61
2021/03/18 05:12:25;;;;;;;45.75;19.60;;;;;;;-1.80;69.71;100845.62;2113075;84;29235;-60
2021/03/18 05:15:43;;;;;;;53.80;21.05;;;;;;;-1.76;69.82;100845.25;2092574;84;28037;-61
2021/03/18 05:18:53;;;;;;;53.50;22.55;;;;;;;-1.74;69.85;100847.02;2112804;84;29693;-61
2021/03/18 05:22:07;;;;;;;50.67;21.40;;;;;;;-1.72;69.79;100837.41;2112917;84;31233;-59
2021/03/18 05:25:21;;;;;;;51.48;23.42;;;;;;;-1.69;69.81;100840.07;2112277;84;33990;-60
2021/03/18 05:28:33;;;;;;;52.98;23.27;;;;;;;-1.67;69.84;100833.95;2112742;84;30048;-61
2021/03/18 05:31:45;;;;;;;50.85;20.85;;;;;;;-1.65;69.86;100835.72;2112849;84;27934;-60
2021/03/18 05:34:55;;;;;;;49.60;25.12;;;;;;;-1.63;69.85;100842.28;2090596;84;29701;-66
2021/03/18 05:38:07;;;;;;;47.62;22.20;;;;;;;-1.59;69.94;100849.34;2112403;84;27925;-61
2021/03/18 05:41:12;;;;;;;51.42;23.70;;;;;;;-1.52;70.15;100851.16;2112629;84;33979;-62
2021/03/18 05:44:17;;;;;;;52.80;21.40;;;;;;;-1.44;70.29;100854.73;2112944;84;30067;-60
2021/03/18 05:47:30;;;;;;;46.42;23.57;;;;;;;-1.32;70.44;100865.78;2113012;84;27892;-60
2021/03/18 05:50:48;;;;;;;57.30;25.72;;;;;;;-1.21;70.58;100861.93;2112832;84;28834;-59
2021/03/18 05:54:00;;;;;;;49.20;23.73;;;;;;;-1.09;70.61;100867.28;2111913;84;27943;-60
2021/03/18 05:57:06;;;;;;;64.03;27.07;;;;;;;-1.00;70.65;100869.55;2112828;84;33098;-66
2021/03/18 06:00:17;;;;;;;60.60;27.27;;;;;;;-0.90;70.64;100871.77;2112996;84;30063;-62
2021/03/18 06:03:29;;;;;;;65.87;31.27;;;;;;;-0.84;70.71;100876.67;2112431;84;27893;-61
2021/03/18 06:06:41;;;;;;;58.40;30.17;;;;;;;-0.72;70.76;100874.98;2112664;84;29704;-62
2021/03/18 06:09:56;;;;;;;58.55;31.95;;;;;;;-0.64;70.82;100878.52;2112178;84;31745;-61
2021/03/18 06:13:05;;;;;;;59.45;28.57;;;;;;;-0.57;70.80;100875.06;2112560;84;33956;-66
2021/03/18 06:16:20;;;;;;;52.43;26.68;;;;;;;-0.43;70.74;100879.52;2111964;84;27855;-61
2021/03/18 06:19:37;;;;;;;46.30;24.65;;;;;;;-0.21;70.84;100873.90;2112493;84;27916;-69
2021/03/18 06:22:52;;;;;;;47.95;25.27;;;;;;;0.12;70.76;100872.25;2112495;84;28852;-64
2021/03/18 06:26:02;;;;;;;45.08;21.75;;;;;;;0.33;70.53;100879.77;2112446;84;31154;-60
2021/03/18 06:29:35;;;;;;;44.73;23.50;;;;;;;0.56;70.30;100873.22;2112435;84;34010;-62
2021/03/18 06:32:41;;;;;;;44.55;23.80;;;;;;;0.67;70.08;100871.45;2112655;84;30059;-62
2021/03/18 06:35:49;;;;;;;44.15;23.57;;;;;;;0.69;69.91;100867.52;2112345;84;27915;-62
2021/03/18 06:39:16;;;;;;;47.35;23.12;;;;;;;0.92;70.25;100863.55;2112595;84;29841;-64
2021/03/18 06:42:18;;;;;;;;;;;;;;;1.33;70.24;100861.73;2117208;84;31976;-66
2021/03/18 06:45:34;;;;;;;57.93;28.35;;;;;;;1.77;70.11;100856.73;2112655;84;33195;-62
2021/03/18 06:48:40;;;;;;;75.32;32.17;;;;;;;2.03;69.90;100861.45;2112719;84;30118;-62
2021/03/18 06:52:08;;;;;;;45.92;25.72;;;;;;;2.24;69.51;100862.66;2112518;84;28017;-66
2021/03/18 06:55:32;;;;;;;49.63;25.68;;;;;;;2.41;69.26;100866.50;2112663;84;29722;-69
2021/03/18 06:58:36;;;;;;;48.20;23.62;;;;;;;2.52;68.79;100870.39;2113751;84;32057;-63
2021/03/18 07:01:38;;;;;;;47.90;23.75;;;;;;;2.55;68.47;100862.45;2114773;84;33911;-67
2021/03/18 07:04:55;;;;;;;46.20;24.23;;;;;;;2.58;68.28;100861.53;2112411;84;30124;-62
2021/03/18 07:08:04;;;;;;;41.50;23.30;;;;;;;2.59;68.24;100856.67;2112638;84;27980;-61
2021/03/18 07:11:22;;;;;;;47.67;23.45;;;;;;;2.67;68.23;100856.19;2112811;84;29720;-63
2021/03/18 07:14:45;;;;;;;45.80;23.47;;;;;;;2.97;68.13;100848.01;2115398;84;32068;-65
2021/03/18 07:18:05;;;;;;;47.88;23.80;;;;;;;3.22;67.86;100841.13;2112493;84;27977;-63
2021/03/18 07:21:13;;;;;;;49.88;26.33;;;;;;;3.52;67.71;100840.35;2090756;84;30066;-62
2021/03/18 07:24:39;;;;;;;50.78;25.43;;;;;;;3.83;67.42;100832.02;2113152;84;27935;-66
2021/03/18 07:27:48;;;;;;;;;;;;;;;4.12;67.32;100830.77;2115574;84;29794;-62
2021/03/18 07:30:58;;;;;;;48.35;23.62;;;;;;;4.28;66.49;100829.64;2112983;84;33747;-68
2021/03/18 07:34:07;;;;;;;42.62;22.62;;;;;;;4.45;66.72;100833.81;2112751;84;33987;-62
2021/03/18 07:37:13;;;;;;;48.78;22.17;;;;;;;4.60;66.40;100834.00;2114091;84;30060;-62
2021/03/18 07:40:24;;;;;;;47.50;23.87;;;;;;;4.72;65.91;100833.78;2112980;84;27934;-63
2021/03/18 07:43:30;;;;;;;57.53;26.10;;;;;;;4.74;65.53;100830.66;2114518;84;28833;-64
2021/03/18 07:46:36;;;;;;;48.48;22.55;;;;;;;4.74;65.22;100830.66;2087604;84;31923;-63
2021/03/18 07:49:45;;;;;;;42.95;23.98;;;;;;;4.69;65.18;100826.77;2112837;84;34064;-63
2021/03/18 07:52:50;;;;;;;42.98;21.55;;;;;;;4.67;65.15;100828.56;2113017;84;30048;-70
2021/03/18 07:55:58;;;;;;;;;;;;;;;4.84;65.21;100832.71;2115692;84;27907;-62
2021/03/18 07:59:10;;;;;;;45.28;23.87;;;;;;;5.13;64.72;100826.02;2112847;84;28750;-61
2021/03/18 08:02:24;;;;;;;38.13;22.30;;;;;;;5.42;64.46;100828.56;2113921;84;31937;-61
2021/03/18 08:05:41;;;;;;;49.23;26.20;;;;;;;5.66;64.30;100831.62;2112718;84;33996;-64
2021/03/18 08:08:51;;;;;;;41.40;24.23;;;;;;;5.68;63.93;100837.78;2112871;84;30047;-62
2021/03/18 08:11:56;;;;;;;43.58;22.45;;;;;;;5.59;63.68;100835.75;2112789;84;27970;-59
2021/03/18 08:15:25;;;;;;;41.45;21.80;;;;;;;5.50;63.49;100833.26;2112749;84;29695;-64
2021/03/18 08:18:37;;;;;;;32.35;18.55;;;;;;;5.64;63.39;100834.32;2114789;84;32063;-65
2021/03/18 08:22:17;;;;;;;36.33;20.08;;;;;;;5.92;62.62;100825.31;2114400;84;33984;-66
2021/03/18 08:25:23;;;;;;;37.17;20.05;;;;;;;6.16;62.16;100823.03;2113310;84;29539;-63
2021/03/18 08:28:48;;;;;;;37.67;18.92;;;;;;;6.32;62.37;100826.66;2092092;84;28027;-63
2021/03/18 08:32:00;;;;;;;37.70;22.27;;;;;;;6.38;61.60;100820.73;2113192;84;29728;-64
2021/03/18 08:35:06;;;;;;;40.98;22.80;;;;;;;6.36;61.57;100821.69;2115204;84;31143;-65
2021/03/18 08:38:16;;;;;;;63.58;33.50;;;;;;;6.38;61.63;100818.07;2088654;84;33834;-68
2021/03/18 08:41:41;;;;;;;49.60;30.17;;;;;;;6.32;62.24;100818.23;2115940;84;29149;-67
2021/03/18 08:44:45;;;;;;;44.42;25.92;;;;;;;6.25;62.33;100816.63;2115792;84;27913;-69
2021/03/18 08:47:56;;;;;;;47.55;27.07;;;;;;;6.12;62.10;100825.36;2115655;84;29703;-67
2021/03/18 08:51:03;;;;;;;42.93;27.00;;;;;;;5.95;61.85;100822.17;2115697;84;31149;-68
2021/03/18 08:54:05;;;;;;;44.13;25.30;;;;;;;5.75;62.30;100826.13;2115576;84;34068;-67
2021/03/18 08:57:16;;;;;;;40.08;24.80;;;;;;;5.61;62.13;100819.32;2115823;84;30046;-68
2021/03/18 09:00:23;;;;;;;44.95;27.22;;;;;;;5.53;62.29;100823.91;2088231;84;28029;-65
2021/03/18 09:03:28;;;;;;;49.63;28.40;;;;;;;5.46;62.51;100825.81;2113230;84;29712;-67
2021/03/18 09:06:33;;;;;;;45.05;26.40;;;;;;;5.45;62.32;100824.06;2115933;84;32047;-65
2021/03/18 09:09:41;;;;;;;38.60;25.17;;;;;;;5.42;62.34;100820.59;2112527;84;33972;-64
2021/03/18 09:13:02;;;;;;;38.67;26.12;;;;;;;5.30;62.11;100814.59;2112526;84;29152;-68
2021/03/18 09:16:12;;;;;;;44.13;30.20;;;;;;;5.29;62.32;100810.66;2112796;84;27957;-63
2021/03/18 09:19:15;;;;;;;48.58;31.23;;;;;;;5.25;62.36;100805.86;2071068;84;29718;-67
2021/03/18 09:22:24;;;;;;;39.67;23.77;;;;;;;5.24;62.54;100804.11;2117134;83;32052;-66
2021/03/18 09:25:27;;;;;;;45.67;27.22;;;;;;;5.22;62.20;100808.58;2104457;84;34044;-67
2021/03/18 09:28:40;;;;;;;41.28;26.23;;;;;;;5.24;62.33;100812.08;2104135;84;30053;-67
2021/03/18 09:31:43;;;;;;;46.95;26.65;;;;;;;5.20;62.38;100813.03;2103265;84;27946;-66
2021/03/18 09:34:46;;;;;;;41.10;26.33;;;;;;;5.21;62.47;100806.82;2104133;84;29830;-68
2021/03/18 09:37:50;;;;;;;42.98;24.90;;;;;;;5.25;62.44;100804.97;2104303;84;32039;-66
2021/03/18 09:40:55;;;;;;;46.85;26.70;;;;;;;5.32;62.84;100807.95;2104091;84;33984;-67
2021/03/18 09:44:22;;;;;;;41.70;20.57;;;;;;;5.49;63.08;100803.61;2078116;84;30122;-66
2021/03/18 09:47:25;;;;;;;42.85;25.20;;;;;;;5.66;62.60;100805.04;2104403;84;27749;-64
2021/03/18 09:50:32;;;;;;;48.40;26.65;;;;;;;5.83;62.29;100798.91;2075498;84;28843;-64
2021/03/18 09:53:43;;;;;;;41.83;26.65;;;;;;;6.06;62.07;100798.42;2102040;84;32050;-64
2021/03/18 09:56:56;;;;;;;46.50;27.82;;;;;;;6.34;62.15;100799.56;2102012;84;33983;-61
2021/03/18 10:00:06;;;;;;;44.85;27.05;;;;;;;6.68;62.04;100796.06;2081157;84;30045;-64
2021/03/18 10:03:16;;;;;;;40.63;24.72;;;;;;;6.83;61.41;100793.01;2102141;84;27914;-65
2021/03/18 10:06:34;;;;;;;42.13;24.65;;;;;;;6.86;61.26;100787.19;2101954;84;29807;-64
2021/03/18 10:09:46;;;;;;;45.05;26.87;;;;;;;6.83;60.80;100789.48;2102124;84;32063;-65
2021/03/18 10:12:57;;;;;;;40.33;25.75;;;;;;;6.76;60.95;100787.44;2101994;84;33967;-65
2021/03/18 10:16:10;;;;;;;44.23;26.07;;;;;;;6.76;61.18;100786.11;2102084;84;30084;-63
2021/03/18 10:19:19;;;;;;;37.83;25.30;;;;;;;6.80;61.12;100785.56;2102015;84;27900;-65
2021/03/18 10:22:37;;;;;;;40.75;24.87;;;;;;;6.88;60.61;100760.92;2101920;84;28934;-64
2021/03/18 10:25:48;;;;;;;37.63;23.60;;;;;;;6.88;60.86;100766.72;2109818;84;32072;-65
2021/03/18 10:29:00;;;;;;;43.65;25.25;;;;;;;6.88;60.57;100756.06;2112789;84;33980;-64
2021/03/18 10:32:16;;;;;;;41.63;24.92;;;;;;;6.87;60.27;100762.30;2110430;84;29149;-65
2021/03/18 10:35:31;;;;;;;39.55;25.75;;;;;;;6.74;60.21;100767.97;2109702;84;27932;-64
2021/03/18 10:38:41;;;;;;;42.50;26.95;;;;;;;6.66;60.47;100763.28;2109974;84;29646;-66
2021/03/18 10:42:02;;;;;;;43.05;27.35;;;;;;;6.62;60.76;100762.97;2110424;84;32065;-64
2021/03/18 10:45:22;;;;;;;36.70;25.00;;;;;;;6.59;60.54;100755.05;2110372;84;33982;-66
2021/03/18 10:48:36;;;;;;;31.40;19.60;;;;;;;6.53;60.08;100759.61;2109243;84;30054;-65
2021/03/18 10:51:51;;;;;;;34.38;24.30;;;;;;;6.45;60.19;100755.39;2110482;84;27952;-65
2021/03/18 10:54:57;;;;;;;;;;;;;;;6.43;60.22;100745.23;2113052;84;29705;-66
2021/03/18 10:58:05;;;;;;;46.23;26.07;;;;;;;6.37;60.28;100743.61;2110486;84;31136;-67
2021/03/18 11:01:13;;;;;;;40.88;24.27;;;;;;;6.31;60.65;100743.31;2112548;84;33985;-66
2021/03/18 11:04:16;;;;;;;32.53;19.42;;;;;;;6.31;60.83;100731.78;2111953;84;30043;-66
2021/03/18 11:07:23;;;;;;;33.50;21.80;;;;;;;6.36;60.09;100733.88;2107927;84;28083;-65
2021/03/18 11:10:43;;;;;;;34.13;21.85;;;;;;;6.34;59.99;100725.05;2083311;84;29708;-67
2021/03/18 11:13:47;;;;;;;31.35;20.95;;;;;;;6.35;59.83;100718.83;2112397;84;32068;-67
2021/03/18 11:16:53;;;;;;;29.37;19.90;;;;;;;6.31;59.36;100710.05;2109830;84;33986;-69
2021/03/18 11:20:15;;;;;;;26.70;15.68;;;;;;;6.31;59.74;100713.16;2111358;84;29164;-68
2021/03/18 11:23:30;;;;;;;44.25;23.62;;;;;;;6.33;59.28;100708.23;2112732;82;27873;-67
2021/03/18 11:26:34;;;;;;;12.70;8.63;;;;;;;6.30;59.09;100704.31;2112818;84;29671;-64
2021/03/18 11:29:40;;;;;;;19.07;11.75;;;;;;;6.37;58.25;100694.37;2110597;84;32061;-66
2021/03/18 11:32:43;;;;;;;18.35;12.53;;;;;;;6.36;57.19;100690.86;2112709;84;33971;-69
2021/03/18 11:35:55;;;;;;;20.60;14.07;;;;;;;6.38;57.15;100690.34;2110333;84;30532;-66
2021/03/18 11:39:02;;;;;;;23.45;14.68;;;;;;;6.55;58.30;100675.71;2079492;84;27992;-66
2021/03/18 11:42:11;;;;;;;17.48;10.95;;;;;;;6.82;58.67;100673.23;2110352;84;29725;-66
2021/03/18 11:45:17;;;;;;;20.52;11.30;;;;;;;7.12;57.54;100670.59;2110348;84;32063;-66
2021/03/18 11:48:19;;;;;;;23.12;14.30;;;;;;;7.35;56.94;100664.57;2112678;84;33192;-66
2021/03/18 11:51:23;;;;;;;25.95;18.02;;;;;;;7.43;56.38;100659.89;2112809;84;30057;-68
2021/03/18 11:54:26;;;;;;;31.52;18.50;;;;;;;7.42;56.45;100652.82;2112699;84;27677;-67
2021/03/18 11:57:29;;;;;;;21.40;14.38;;;;;;;7.42;56.45;100663.92;2112168;84;29827;-68
2021/03/18 12:00:37;;;;;;;22.75;14.38;;;;;;;7.35;56.20;100656.58;2112237;84;32130;-67
2021/03/18 12:03:40;;;;;;;23.00;14.70;;;;;;;7.33;56.30;100656.22;2112358;84;34064;-67
2021/03/18 12:06:43;;;;;;;24.50;15.38;;;;;;;7.38;55.91;100649.83;2112105;84;30048;-67
2021/03/18 12:09:48;;;;;;;23.85;16.55;;;;;;;7.43;56.36;100646.57;2112527;84;27894;-68
2021/03/18 12:12:51;;;;;;;23.70;15.30;;;;;;;7.45;56.61;100639.37;2112528;84;29685;-67
2021/03/18 12:15:55;;;;;;;21.85;15.00;;;;;;;7.44;56.28;100636.32;2112635;84;32043;-67
2021/03/18 12:18:58;;;;;;;22.93;15.48;;;;;;;7.37;56.12;100635.19;2112600;84;33965;-66
2021/03/18 12:22:00;;;;;;;20.17;13.88;;;;;;;7.32;56.18;100631.82;2086573;84;29174;-63
2021/03/18 12:25:11;;;;;;;24.60;16.73;;;;;;;7.27;55.63;100629.30;2110628;84;28652;-66
2021/03/18 12:28:15;;;;;;;23.52;14.95;;;;;;;7.22;56.34;100625.42;2110612;84;29716;-67
2021/03/18 12:31:18;;;;;;;21.47;14.10;;;;;;;7.23;56.00;100615.66;2113225;84;32070;-69
2021/03/18 12:34:20;;;;;;;19.65;14.07;;;;;;;7.24;56.01;100612.92;2112015;84;33887;-65
2021/03/18 12:37:26;;;;;;;20.08;14.95;;;;;;;7.26;56.13;100605.77;2110495;84;29161;-65
2021/03/18 12:40:38;;;;;;;13.68;8.23;;;;;;;7.29;56.37;100604.34;2110718;84;27899;-64
2021/03/18 12:43:50;;;;;;;13.25;8.55;;;;;;;7.33;54.95;100610.91;2110307;84;29712;-67
2021/03/18 12:46:54;;;;;;;10.82;7.72;;;;;;;7.32;54.38;100603.84;2112858;84;32070;-66
2021/03/18 12:49:59;;;;;;;7.57;5.87;;;;;;;7.29;53.61;100599.02;2110701;84;33983;-68
2021/03/18 12:53:03;;;;;;;10.93;7.47;;;;;;;7.31;53.97;100592.29;2112583;84;29154;-66
2021/03/18 12:56:13;;;;;;;12.50;8.63;;;;;;;7.33;54.31;100590.92;2108972;84;27945;-67
2021/03/18 12:59:15;;;;;;;14.23;9.73;;;;;;;7.36;54.20;100595.69;2111675;84;29730;-65
2021/03/18 13:02:21;;;;;;;21.10;12.33;;;;;;;7.34;54.13;100588.67;2108015;84;32021;-65
2021/03/18 13:05:25;;;;;;;22.15;12.75;;;;;;;7.27;54.71;100593.33;2088165;84;34038;-68
2021/03/18 13:08:29;;;;;;;19.75;12.40;;;;;;;7.21;55.08;100590.37;2112008;84;30080;-66
2021/03/18 13:11:36;;;;;;;20.57;12.55;;;;;;;7.14;55.19;100588.36;2108493;84;28022;-67
2021/03/18 13:14:41;;;;;;;11.43;7.85;;;;;;;7.04;55.31;100584.24;2108610;84;29721;-66
2021/03/18 13:17:45;;;;;;;12.05;7.65;;;;;;;6.95;55.25;100577.88;2112410;84;32051;-65
2021/03/18 13:20:54;;;;;;;13.08;8.28;;;;;;;6.81;55.59;100576.95;2110332;84;33617;-64
2021/03/18 13:23:58;;;;;;;29.37;17.98;;;;;;;6.72;55.88;100571.43;2110357;84;29163;-64
2021/03/18 13:27:04;;;;;;;29.07;17.23;;;;;;;6.62;56.15;100561.98;2116436;84;27923;-60
2021/03/18 13:30:18;;;;;;;18.57;12.73;;;;;;;6.61;56.80;100553.58;2113728;84;28817;-64
2021/03/18 13:33:23;;;;;;;35.35;19.17;;;;;;;6.62;56.69;100551.33;2113563;84;32024;-63
2021/03/18 13:36:31;;;;;;;13.28;9.25;;;;;;;6.66;57.24;100543.20;2113604;84;34001;-64
2021/03/18 13:39:39;;;;;;;11.75;7.60;;;;;;;6.75;56.43;100541.16;2113658;84;28993;-64
2021/03/18 13:42:52;;;;;;;48.80;37.30;;;;;;;6.81;56.54;100538.33;2086089;84;28005;-63
2021/03/18 13:46:07;;;;;;;36.48;21.62;;;;;;;6.89;56.40;100528.78;2084264;84;28018;-64
2021/03/18 13:49:19;;;;;;;31.52;22.67;;;;;;;6.94;56.73;100534.37;2113056;84;32064;-64
2021/03/18 13:52:31;;;;;;;22.27;16.05;;;;;;;7.00;57.00;100508.00;2000822;88;28414;-64
2021/03/18 13:55:57;;;;;;;19.03;12.20;;;;;;;7.29;56.63;100509.73;2334660;75;30107;-64
2021/03/18 13:59:05;;;;;;;13.05;8.45;;;;;;;7.38;56.21;100512.56;2298216;77;27898;-65
2021/03/18 14:02:23;;;;;;;12.45;8.33;;;;;;;7.39;55.48;100504.98;2298539;77;29768;-65
2021/03/18 14:05:33;;;;;;;15.10;10.90;;;;;;;7.41;55.67;100496.48;2298251;77;32016;-65
2021/03/18 14:08:39;;;;;;;49.03;20.97;;;;;;;7.57;55.36;100497.29;2300007;77;33988;-66
2021/03/18 14:11:46;;;;;;;17.05;8.23;;;;;;;7.61;54.75;100496.27;2301199;77;29446;-64
2021/03/18 14:14:57;;;;;;;29.97;14.23;;;;;;;7.62;54.92;100493.98;2298890;77;27918;-65
2021/03/18 14:18:10;;;;;;;29.50;15.98;;;;;;;7.63;54.33;100496.20;2298412;77;27924;-66
2021/03/18 14:21:13;;;;;;;32.45;14.75;;;;;;;7.62;54.25;100491.31;2301409;77;32022;-66
2021/03/18 14:24:16;;;;;;;21.33;11.30;;;;;;;7.64;53.94;100484.61;2301466;77;34051;-66
2021/03/18 14:27:26;;;;;;;15.72;9.23;;;;;;;7.69;54.24;100484.86;2298493;77;29725;-64
2021/03/18 14:30:35;;;;;;;21.48;13.75;;;;;;;7.74;53.93;100474.02;2299316;77;28167;-65
2021/03/18 14:33:47;;;;;;;18.82;10.45;;;;;;;7.80;53.76;100472.94;2298964;77;29789;-67